sensor_id;sensor_type;location;lat;lon;timestamp;P1;durP1;ratioP1;P2;durP2;ratioP2
71166;SDS011;58864;45.928;20.078;2022-12-29T00:00:06;28.60;;;9.80;;
71166;SDS011;58864;45.928;20.078;2022-12-29T00:02:38;27.83;;;9.10;;
71166;SDS011;58864;45.928;20.078;2022-12-29T00:05:03;25.63;;;9.63;;
71166;SDS011;58864;45.928;20.078;2022-12-29T00:10:45;23.42;;;9.23;;
71166;SDS011;58864;45.928;20.078;2022-12-29T00:16:31;23.37;;;9.03;;
71166;SDS011;58864;45.928;20.078;2022-12-29T00:18:59;21.88;;;9.40;;
71166;SDS011;58864;45.928;20.078;2022-12-29T00:21:24;24.23;;;9.93;;
71166;SDS011;58864;45.928;20.078;2022-12-29T00:24:26;24.17;;;10.10;;
71166;SDS011;58864;45.928;20.078;2022-12-29T00:29:52;19.20;;;8.52;;
71166;SDS011;58864;45.928;20.078;2022-12-29T00:32:35;21.00;;;8.32;;
71166;SDS011;58864;45.928;20.078;2022-12-29T00:35:30;24.03;;;9.83;;
71166;SDS011;58864;45.928;20.078;2022-12-29T00:37:58;26.70;;;10.07;;
71166;SDS011;58864;45.928;20.078;2022-12-29T00:40:49;26.30;;;9.35;;
71166;SDS011;58864;45.928;20.078;2022-12-29T00:43:42;30.08;;;10.10;;
71166;SDS011;58864;45.928;20.078;2022-12-29T00:46:27;28.30;;;10.15;;
71166;SDS011;58864;45.928;20.078;2022-12-29T00:48:52;27.50;;;10.50;;
71166;SDS011;58864;45.928;20.078;2022-12-29T00:51:37;29.42;;;10.25;;
71166;SDS011;58864;45.928;20.078;2022-12-29T00:54:02;29.13;;;10.82;;
71166;SDS011;58864;45.928;20.078;2022-12-29T00:56:43;36.60;;;11.83;;
71166;SDS011;58864;45.928;20.078;2022-12-29T00:59:19;32.85;;;12.20;;
71166;SDS011;58864;45.928;20.078;2022-12-29T01:01:55;26.77;;;11.05;;
71166;SDS011;58864;45.928;20.078;2022-12-29T01:04:33;25.25;;;10.05;;
71166;SDS011;58864;45.928;20.078;2022-12-29T01:07:01;24.10;;;8.57;;
71166;SDS011;58864;45.928;20.078;2022-12-29T01:09:25;24.13;;;9.17;;
71166;SDS011;58864;45.928;20.078;2022-12-29T01:12:09;24.45;;;9.68;;
71166;SDS011;58864;45.928;20.078;2022-12-29T01:14:34;24.60;;;9.40;;
71166;SDS011;58864;45.928;20.078;2022-12-29T01:16:58;24.50;;;9.02;;
71166;SDS011;58864;45.928;20.078;2022-12-29T01:22:25;35.28;;;12.32;;
71166;SDS011;58864;45.928;20.078;2022-12-29T01:25:02;42.25;;;14.98;;
71166;SDS011;58864;45.928;20.078;2022-12-29T01:27:37;47.05;;;14.82;;
71166;SDS011;58864;45.928;20.078;2022-12-29T01:30:16;36.73;;;13.53;;
71166;SDS011;58864;45.928;20.078;2022-12-29T01:32:43;33.70;;;12.77;;
71166;SDS011;58864;45.928;20.078;2022-12-29T01:35:07;50.70;;;16.70;;
71166;SDS011;58864;45.928;20.078;2022-12-29T01:37:32;43.75;;;15.13;;
71166;SDS011;58864;45.928;20.078;2022-12-29T01:39:56;46.90;;;16.53;;
71166;SDS011;58864;45.928;20.078;2022-12-29T01:42:22;43.47;;;15.60;;
71166;SDS011;58864;45.928;20.078;2022-12-29T01:44:56;35.85;;;11.90;;
71166;SDS011;58864;45.928;20.078;2022-12-29T01:47:35;25.45;;;10.40;;
71166;SDS011;58864;45.928;20.078;2022-12-29T01:56:27;31.23;;;11.90;;
71166;SDS011;58864;45.928;20.078;2022-12-29T02:02:02;29.53;;;11.63;;
71166;SDS011;58864;45.928;20.078;2022-12-29T02:04:26;31.30;;;11.27;;
71166;SDS011;58864;45.928;20.078;2022-12-29T02:06:52;31.60;;;11.03;;
71166;SDS011;58864;45.928;20.078;2022-12-29T02:09:19;26.13;;;10.13;;
71166;SDS011;58864;45.928;20.078;2022-12-29T02:11:49;24.52;;;10.02;;
71166;SDS011;58864;45.928;20.078;2022-12-29T02:14:14;29.42;;;9.90;;
71166;SDS011;58864;45.928;20.078;2022-12-29T02:32:58;22.55;;;8.88;;
71166;SDS011;58864;45.928;20.078;2022-12-29T02:38:02;21.07;;;8.70;;
71166;SDS011;58864;45.928;20.078;2022-12-29T02:40:51;21.40;;;8.95;;
71166;SDS011;58864;45.928;20.078;2022-12-29T02:45:58;27.23;;;10.60;;
71166;SDS011;58864;45.928;20.078;2022-12-29T02:51:02;29.47;;;11.43;;
71166;SDS011;58864;45.928;20.078;2022-12-29T02:53:32;26.00;;;9.88;;
71166;SDS011;58864;45.928;20.078;2022-12-29T02:56:16;22.42;;;8.98;;
71166;SDS011;58864;45.928;20.078;2022-12-29T02:58:41;19.85;;;7.95;;
71166;SDS011;58864;45.928;20.078;2022-12-29T03:12:14;22.77;;;8.17;;
71166;SDS011;58864;45.928;20.078;2022-12-29T03:20:29;22.25;;;9.05;;
71166;SDS011;58864;45.928;20.078;2022-12-29T03:23:03;23.77;;;9.20;;
71166;SDS011;58864;45.928;20.078;2022-12-29T03:25:34;20.17;;;8.10;;
71166;SDS011;58864;45.928;20.078;2022-12-29T03:28:01;22.88;;;8.80;;
71166;SDS011;58864;45.928;20.078;2022-12-29T03:30:29;18.02;;;7.93;;
71166;SDS011;58864;45.928;20.078;2022-12-29T03:32:55;20.00;;;8.02;;
71166;SDS011;58864;45.928;20.078;2022-12-29T03:35:23;21.02;;;8.43;;
71166;SDS011;58864;45.928;20.078;2022-12-29T03:37:52;23.77;;;8.83;;
71166;SDS011;58864;45.928;20.078;2022-12-29T03:40:24;29.48;;;11.45;;
71166;SDS011;58864;45.928;20.078;2022-12-29T03:42:50;26.30;;;11.27;;
71166;SDS011;58864;45.928;20.078;2022-12-29T03:45:15;25.50;;;8.90;;
71166;SDS011;58864;45.928;20.078;2022-12-29T03:47:39;18.40;;;8.20;;
71166;SDS011;58864;45.928;20.078;2022-12-29T03:50:04;20.23;;;8.63;;
71166;SDS011;58864;45.928;20.078;2022-12-29T03:52:29;23.35;;;8.63;;
71166;SDS011;58864;45.928;20.078;2022-12-29T03:54:59;22.63;;;8.77;;
71166;SDS011;58864;45.928;20.078;2022-12-29T04:00:19;26.80;;;10.70;;
71166;SDS011;58864;45.928;20.078;2022-12-29T04:02:56;24.90;;;10.27;;
71166;SDS011;58864;45.928;20.078;2022-12-29T04:05:21;22.80;;;10.00;;
71166;SDS011;58864;45.928;20.078;2022-12-29T04:07:45;25.37;;;10.67;;
71166;SDS011;58864;45.928;20.078;2022-12-29T04:10:10;27.83;;;11.45;;
71166;SDS011;58864;45.928;20.078;2022-12-29T04:12:34;20.67;;;9.33;;
71166;SDS011;58864;45.928;20.078;2022-12-29T04:14:59;21.30;;;9.73;;
71166;SDS011;58864;45.928;20.078;2022-12-29T04:17:23;22.30;;;8.93;;
71166;SDS011;58864;45.928;20.078;2022-12-29T04:19:50;23.30;;;9.50;;
71166;SDS011;58864;45.928;20.078;2022-12-29T04:22:37;23.77;;;10.18;;
71166;SDS011;58864;45.928;20.078;2022-12-29T04:27:54;23.45;;;9.18;;
71166;SDS011;58864;45.928;20.078;2022-12-29T04:30:19;27.87;;;9.70;;
71166;SDS011;58864;45.928;20.078;2022-12-29T04:32:43;26.17;;;9.90;;
71166;SDS011;58864;45.928;20.078;2022-12-29T04:35:08;23.57;;;9.33;;
71166;SDS011;58864;45.928;20.078;2022-12-29T04:37:35;25.35;;;9.93;;
71166;SDS011;58864;45.928;20.078;2022-12-29T04:39:59;25.10;;;9.80;;
71166;SDS011;58864;45.928;20.078;2022-12-29T04:42:24;20.97;;;9.57;;
71166;SDS011;58864;45.928;20.078;2022-12-29T04:44:48;26.35;;;9.85;;
71166;SDS011;58864;45.928;20.078;2022-12-29T04:47:15;22.43;;;9.10;;
71166;SDS011;58864;45.928;20.078;2022-12-29T04:49:48;27.80;;;9.38;;
71166;SDS011;58864;45.928;20.078;2022-12-29T04:52:13;27.08;;;9.70;;
71166;SDS011;58864;45.928;20.078;2022-12-29T04:54:38;23.03;;;9.33;;
71166;SDS011;58864;45.928;20.078;2022-12-29T04:57:02;21.13;;;8.70;;
71166;SDS011;58864;45.928;20.078;2022-12-29T04:59:27;18.63;;;8.35;;
71166;SDS011;58864;45.928;20.078;2022-12-29T05:01:54;22.47;;;8.73;;
71166;SDS011;58864;45.928;20.078;2022-12-29T05:04:18;20.38;;;8.75;;
71166;SDS011;58864;45.928;20.078;2022-12-29T05:06:48;21.38;;;8.75;;
71166;SDS011;58864;45.928;20.078;2022-12-29T05:09:13;23.50;;;9.20;;
71166;SDS011;58864;45.928;20.078;2022-12-29T05:11:37;22.63;;;9.40;;
71166;SDS011;58864;45.928;20.078;2022-12-29T05:14:22;24.85;;;10.30;;
71166;SDS011;58864;45.928;20.078;2022-12-29T05:16:46;65.53;;;19.40;;
71166;SDS011;58864;45.928;20.078;2022-12-29T05:19:11;169.30;;;38.33;;
71166;SDS011;58864;45.928;20.078;2022-12-29T05:21:35;331.98;;;76.38;;
71166;SDS011;58864;45.928;20.078;2022-12-29T05:24:00;303.70;;;83.37;;
71166;SDS011;58864;45.928;20.078;2022-12-29T05:26:24;201.03;;;59.87;;
71166;SDS011;58864;45.928;20.078;2022-12-29T05:28:49;140.27;;;45.23;;
71166;SDS011;58864;45.928;20.078;2022-12-29T05:31:13;95.20;;;36.55;;
71166;SDS011;58864;45.928;20.078;2022-12-29T05:33:37;37.77;;;16.90;;
71166;SDS011;58864;45.928;20.078;2022-12-29T05:36:05;29.87;;;11.43;;
71166;SDS011;58864;45.928;20.078;2022-12-29T05:38:31;28.45;;;10.98;;
71166;SDS011;58864;45.928;20.078;2022-12-29T05:40:58;25.13;;;10.70;;
71166;SDS011;58864;45.928;20.078;2022-12-29T05:43:22;27.93;;;10.57;;
71166;SDS011;58864;45.928;20.078;2022-12-29T05:45:50;25.40;;;11.07;;
71166;SDS011;58864;45.928;20.078;2022-12-29T05:48:14;29.55;;;11.07;;
71166;SDS011;58864;45.928;20.078;2022-12-29T05:50:38;27.97;;;12.70;;
71166;SDS011;58864;45.928;20.078;2022-12-29T05:55:53;26.20;;;12.20;;
71166;SDS011;58864;45.928;20.078;2022-12-29T05:58:18;27.57;;;13.10;;
71166;SDS011;58864;45.928;20.078;2022-12-29T06:00:42;36.50;;;14.17;;
71166;SDS011;58864;45.928;20.078;2022-12-29T06:03:16;37.85;;;16.02;;
71166;SDS011;58864;45.928;20.078;2022-12-29T06:05:41;37.90;;;15.55;;
71166;SDS011;58864;45.928;20.078;2022-12-29T06:08:05;32.33;;;13.43;;
71166;SDS011;58864;45.928;20.078;2022-12-29T06:13:27;33.85;;;13.55;;
71166;SDS011;58864;45.928;20.078;2022-12-29T06:15:51;30.53;;;12.50;;
71166;SDS011;58864;45.928;20.078;2022-12-29T06:18:16;34.60;;;13.90;;
71166;SDS011;58864;45.928;20.078;2022-12-29T06:20:40;31.80;;;14.05;;
71166;SDS011;58864;45.928;20.078;2022-12-29T06:23:07;34.10;;;13.67;;
71166;SDS011;58864;45.928;20.078;2022-12-29T06:25:34;35.33;;;14.98;;
71166;SDS011;58864;45.928;20.078;2022-12-29T06:27:59;36.05;;;14.73;;
71166;SDS011;58864;45.928;20.078;2022-12-29T06:30:24;35.27;;;13.37;;
71166;SDS011;58864;45.928;20.078;2022-12-29T06:32:48;40.67;;;14.48;;
71166;SDS011;58864;45.928;20.078;2022-12-29T06:38:36;48.03;;;16.63;;
71166;SDS011;58864;45.928;20.078;2022-12-29T06:41:00;65.30;;;23.13;;
71166;SDS011;58864;45.928;20.078;2022-12-29T06:43:25;65.10;;;23.75;;
71166;SDS011;58864;45.928;20.078;2022-12-29T06:45:49;67.13;;;24.60;;
71166;SDS011;58864;45.928;20.078;2022-12-29T06:48:14;57.90;;;21.67;;
71166;SDS011;58864;45.928;20.078;2022-12-29T06:50:38;53.00;;;21.40;;
71166;SDS011;58864;45.928;20.078;2022-12-29T06:53:05;55.17;;;21.40;;
71166;SDS011;58864;45.928;20.078;2022-12-29T06:58:24;58.28;;;21.33;;
71166;SDS011;58864;45.928;20.078;2022-12-29T07:00:49;53.57;;;19.10;;
71166;SDS011;58864;45.928;20.078;2022-12-29T07:06:09;43.43;;;17.07;;
71166;SDS011;58864;45.928;20.078;2022-12-29T07:08:36;49.70;;;18.38;;
71166;SDS011;58864;45.928;20.078;2022-12-29T07:11:01;53.88;;;20.15;;
71166;SDS011;58864;45.928;20.078;2022-12-29T07:13:25;59.47;;;21.33;;
71166;SDS011;58864;45.928;20.078;2022-12-29T07:16:06;51.13;;;19.70;;
71166;SDS011;58864;45.928;20.078;2022-12-29T07:18:31;48.75;;;18.67;;
71166;SDS011;58864;45.928;20.078;2022-12-29T07:20:56;40.10;;;16.35;;
71166;SDS011;58864;45.928;20.078;2022-12-29T07:23:20;40.00;;;17.80;;
71166;SDS011;58864;45.928;20.078;2022-12-29T07:25:44;45.80;;;19.27;;
71166;SDS011;58864;45.928;20.078;2022-12-29T07:28:11;49.03;;;19.70;;
71166;SDS011;58864;45.928;20.078;2022-12-29T07:30:36;47.10;;;20.67;;
71166;SDS011;58864;45.928;20.078;2022-12-29T07:33:01;59.03;;;24.05;;
71166;SDS011;58864;45.928;20.078;2022-12-29T07:35:28;60.85;;;22.38;;
71166;SDS011;58864;45.928;20.078;2022-12-29T07:37:54;47.67;;;20.50;;
71166;SDS011;58864;45.928;20.078;2022-12-29T07:40:22;58.03;;;24.13;;
71166;SDS011;58864;45.928;20.078;2022-12-29T07:42:46;67.25;;;25.23;;
71166;SDS011;58864;45.928;20.078;2022-12-29T07:45:11;68.60;;;26.90;;
71166;SDS011;58864;45.928;20.078;2022-12-29T07:47:35;68.00;;;27.90;;
71166;SDS011;58864;45.928;20.078;2022-12-29T07:50:00;61.70;;;27.67;;
71166;SDS011;58864;45.928;20.078;2022-12-29T07:52:27;51.20;;;24.00;;
71166;SDS011;58864;45.928;20.078;2022-12-29T07:54:52;52.88;;;24.10;;
71166;SDS011;58864;45.928;20.078;2022-12-29T07:57:24;83.57;;;34.77;;
71166;SDS011;58864;45.928;20.078;2022-12-29T08:00:02;114.55;;;43.33;;
71166;SDS011;58864;45.928;20.078;2022-12-29T08:02:31;109.72;;;42.97;;
71166;SDS011;58864;45.928;20.078;2022-12-29T08:04:55;83.10;;;34.88;;
71166;SDS011;58864;45.928;20.078;2022-12-29T08:07:20;96.00;;;35.23;;
71166;SDS011;58864;45.928;20.078;2022-12-29T08:09:44;75.40;;;27.73;;
71166;SDS011;58864;45.928;20.078;2022-12-29T08:12:09;75.37;;;26.40;;
71166;SDS011;58864;45.928;20.078;2022-12-29T08:14:34;70.75;;;27.42;;
71166;SDS011;58864;45.928;20.078;2022-12-29T08:16:58;64.27;;;25.10;;
71166;SDS011;58864;45.928;20.078;2022-12-29T08:19:32;65.30;;;24.73;;
71166;SDS011;58864;45.928;20.078;2022-12-29T08:21:59;85.03;;;29.73;;
71166;SDS011;58864;45.928;20.078;2022-12-29T08:24:23;85.50;;;30.27;;
71166;SDS011;58864;45.928;20.078;2022-12-29T08:26:47;67.10;;;25.27;;
71166;SDS011;58864;45.928;20.078;2022-12-29T08:29:12;86.00;;;29.70;;
71166;SDS011;58864;45.928;20.078;2022-12-29T08:31:37;90.73;;;32.03;;
71166;SDS011;58864;45.928;20.078;2022-12-29T08:34:04;81.40;;;30.35;;
71166;SDS011;58864;45.928;20.078;2022-12-29T08:36:36;72.47;;;29.00;;
71166;SDS011;58864;45.928;20.078;2022-12-29T08:39:01;58.85;;;25.73;;
71166;SDS011;58864;45.928;20.078;2022-12-29T08:41:25;78.32;;;28.92;;
71166;SDS011;58864;45.928;20.078;2022-12-29T08:43:52;63.27;;;27.13;;
71166;SDS011;58864;45.928;20.078;2022-12-29T08:46:21;59.47;;;25.40;;
71166;SDS011;58864;45.928;20.078;2022-12-29T08:48:53;56.70;;;25.35;;
71166;SDS011;58864;45.928;20.078;2022-12-29T08:51:17;57.28;;;23.98;;
71166;SDS011;58864;45.928;20.078;2022-12-29T08:53:44;51.70;;;23.17;;
71166;SDS011;58864;45.928;20.078;2022-12-29T08:56:11;54.25;;;24.65;;
71166;SDS011;58864;45.928;20.078;2022-12-29T08:58:36;61.50;;;25.00;;
71166;SDS011;58864;45.928;20.078;2022-12-29T09:01:03;65.07;;;27.00;;
71166;SDS011;58864;45.928;20.078;2022-12-29T09:03:28;62.05;;;25.00;;
71166;SDS011;58864;45.928;20.078;2022-12-29T09:05:53;76.03;;;26.60;;
71166;SDS011;58864;45.928;20.078;2022-12-29T09:08:30;67.78;;;25.17;;
71166;SDS011;58864;45.928;20.078;2022-12-29T09:11:20;55.92;;;23.38;;
71166;SDS011;58864;45.928;20.078;2022-12-29T09:13:43;61.85;;;24.05;;
71166;SDS011;58864;45.928;20.078;2022-12-29T09:16:08;57.97;;;23.40;;
71166;SDS011;58864;45.928;20.078;2022-12-29T09:18:35;63.33;;;24.42;;
71166;SDS011;58864;45.928;20.078;2022-12-29T09:21:02;67.82;;;25.33;;
71166;SDS011;58864;45.928;20.078;2022-12-29T09:23:28;60.67;;;25.63;;
71166;SDS011;58864;45.928;20.078;2022-12-29T09:25:55;47.15;;;22.42;;
71166;SDS011;58864;45.928;20.078;2022-12-29T09:28:41;52.73;;;23.07;;
71166;SDS011;58864;45.928;20.078;2022-12-29T09:31:06;63.10;;;23.65;;
71166;SDS011;58864;45.928;20.078;2022-12-29T09:33:30;57.30;;;24.20;;
71166;SDS011;58864;45.928;20.078;2022-12-29T09:35:59;62.58;;;24.77;;
71166;SDS011;58864;45.928;20.078;2022-12-29T09:38:24;58.75;;;27.02;;
71166;SDS011;58864;45.928;20.078;2022-12-29T09:44:16;59.05;;;23.63;;
71166;SDS011;58864;45.928;20.078;2022-12-29T09:46:43;71.47;;;25.63;;
71166;SDS011;58864;45.928;20.078;2022-12-29T09:52:04;140.77;;;41.55;;
71166;SDS011;58864;45.928;20.078;2022-12-29T09:57:16;248.00;;;67.07;;
71166;SDS011;58864;45.928;20.078;2022-12-29T09:59:45;173.47;;;49.73;;
71166;SDS011;58864;45.928;20.078;2022-12-29T10:05:13;90.80;;;31.50;;
71166;SDS011;58864;45.928;20.078;2022-12-29T10:07:45;85.85;;;30.40;;
71166;SDS011;58864;45.928;20.078;2022-12-29T10:13:19;69.37;;;25.57;;
71166;SDS011;58864;45.928;20.078;2022-12-29T10:24:00;61.67;;;24.30;;
71166;SDS011;58864;45.928;20.078;2022-12-29T10:26:31;71.40;;;26.13;;
71166;SDS011;58864;45.928;20.078;2022-12-29T10:29:11;58.85;;;26.75;;
71166;SDS011;58864;45.928;20.078;2022-12-29T10:32:02;50.78;;;24.05;;
71166;SDS011;58864;45.928;20.078;2022-12-29T10:34:37;42.78;;;20.58;;
71166;SDS011;58864;45.928;20.078;2022-12-29T10:37:11;47.33;;;19.80;;
71166;SDS011;58864;45.928;20.078;2022-12-29T10:39:46;40.63;;;18.13;;
71166;SDS011;58864;45.928;20.078;2022-12-29T10:42:34;47.65;;;22.55;;
71166;SDS011;58864;45.928;20.078;2022-12-29T10:45:01;45.22;;;20.58;;
71166;SDS011;58864;45.928;20.078;2022-12-29T10:47:35;53.43;;;23.30;;
71166;SDS011;58864;45.928;20.078;2022-12-29T10:50:03;48.60;;;21.13;;
71166;SDS011;58864;45.928;20.078;2022-12-29T10:52:28;41.28;;;19.85;;
71166;SDS011;58864;45.928;20.078;2022-12-29T10:57:24;41.47;;;21.30;;
71166;SDS011;58864;45.928;20.078;2022-12-29T10:59:52;33.72;;;16.65;;
71166;SDS011;58864;45.928;20.078;2022-12-29T11:07:35;41.78;;;19.10;;
71166;SDS011;58864;45.928;20.078;2022-12-29T11:13:15;33.17;;;16.33;;
71166;SDS011;58864;45.928;20.078;2022-12-29T11:18:20;37.03;;;18.10;;
71166;SDS011;58864;45.928;20.078;2022-12-29T11:20:47;44.80;;;21.10;;
71166;SDS011;58864;45.928;20.078;2022-12-29T11:29:05;62.83;;;25.13;;
71166;SDS011;58864;45.928;20.078;2022-12-29T11:31:50;59.10;;;22.35;;
71166;SDS011;58864;45.928;20.078;2022-12-29T11:34:20;48.95;;;20.25;;
71166;SDS011;58864;45.928;20.078;2022-12-29T11:36:48;46.22;;;18.83;;
71166;SDS011;58864;45.928;20.078;2022-12-29T11:39:34;47.00;;;21.97;;
71166;SDS011;58864;45.928;20.078;2022-12-29T11:42:13;52.08;;;22.25;;
71166;SDS011;58864;45.928;20.078;2022-12-29T11:44:42;50.00;;;23.75;;
71166;SDS011;58864;45.928;20.078;2022-12-29T11:47:23;48.92;;;22.55;;
71166;SDS011;58864;45.928;20.078;2022-12-29T11:49:52;44.55;;;19.48;;
71166;SDS011;58864;45.928;20.078;2022-12-29T11:52:22;40.87;;;19.63;;
71166;SDS011;58864;45.928;20.078;2022-12-29T11:54:48;46.85;;;20.50;;
71166;SDS011;58864;45.928;20.078;2022-12-29T11:57:14;41.47;;;19.08;;
71166;SDS011;58864;45.928;20.078;2022-12-29T11:59:41;43.20;;;18.25;;
71166;SDS011;58864;45.928;20.078;2022-12-29T12:05:29;42.67;;;20.13;;
71166;SDS011;58864;45.928;20.078;2022-12-29T12:07:59;39.95;;;18.58;;
71166;SDS011;58864;45.928;20.078;2022-12-29T12:10:32;42.85;;;20.25;;
71166;SDS011;58864;45.928;20.078;2022-12-29T12:13:08;45.75;;;20.73;;
71166;SDS011;58864;45.928;20.078;2022-12-29T12:15:44;60.00;;;26.10;;
71166;SDS011;58864;45.928;20.078;2022-12-29T12:26:58;103.70;;;45.00;;
71166;SDS011;58864;45.928;20.078;2022-12-29T12:29:27;93.78;;;39.05;;
71166;SDS011;58864;45.928;20.078;2022-12-29T12:32:41;68.00;;;30.53;;
71166;SDS011;58864;45.928;20.078;2022-12-29T12:35:07;57.40;;;27.67;;
71166;SDS011;58864;45.928;20.078;2022-12-29T12:41:25;62.38;;;28.42;;
71166;SDS011;58864;45.928;20.078;2022-12-29T12:44:00;71.80;;;32.25;;
71166;SDS011;58864;45.928;20.078;2022-12-29T13:26:09;57.83;;;26.25;;
71166;SDS011;58864;45.928;20.078;2022-12-29T13:31:20;57.78;;;28.83;;
71166;SDS011;58864;45.928;20.078;2022-12-29T13:34:00;49.47;;;24.98;;
71166;SDS011;58864;45.928;20.078;2022-12-29T13:36:48;46.83;;;21.33;;
71166;SDS011;58864;45.928;20.078;2022-12-29T13:41:44;42.85;;;20.95;;
71166;SDS011;58864;45.928;20.078;2022-12-29T13:44:15;53.50;;;25.75;;
71166;SDS011;58864;45.928;20.078;2022-12-29T13:46:45;59.75;;;31.23;;
71166;SDS011;58864;45.928;20.078;2022-12-29T13:49:20;65.67;;;34.73;;
71166;SDS011;58864;45.928;20.078;2022-12-29T13:51:52;65.70;;;32.95;;
71166;SDS011;58864;45.928;20.078;2022-12-29T13:54:35;57.25;;;30.23;;
71166;SDS011;58864;45.928;20.078;2022-12-29T13:57:13;61.40;;;28.60;;
71166;SDS011;58864;45.928;20.078;2022-12-29T14:02:12;58.13;;;24.10;;
71166;SDS011;58864;45.928;20.078;2022-12-29T14:04:55;60.08;;;23.25;;
71166;SDS011;58864;45.928;20.078;2022-12-29T14:07:21;52.90;;;22.08;;
71166;SDS011;58864;45.928;20.078;2022-12-29T14:09:56;49.70;;;20.40;;
71166;SDS011;58864;45.928;20.078;2022-12-29T14:14:49;41.80;;;20.08;;
71166;SDS011;58864;45.928;20.078;2022-12-29T14:17:16;49.75;;;23.13;;
71166;SDS011;58864;45.928;20.078;2022-12-29T14:19:44;53.60;;;25.07;;
71166;SDS011;58864;45.928;20.078;2022-12-29T14:22:09;56.85;;;26.92;;
71166;SDS011;58864;45.928;20.078;2022-12-29T14:26:59;56.77;;;27.60;;
71166;SDS011;58864;45.928;20.078;2022-12-29T14:31:48;75.07;;;30.87;;
71166;SDS011;58864;45.928;20.078;2022-12-29T14:36:38;60.40;;;28.83;;
71166;SDS011;58864;45.928;20.078;2022-12-29T14:39:04;60.78;;;28.15;;
71166;SDS011;58864;45.928;20.078;2022-12-29T14:41:48;45.87;;;23.20;;
71166;SDS011;58864;45.928;20.078;2022-12-29T14:44:23;43.38;;;22.15;;
71166;SDS011;58864;45.928;20.078;2022-12-29T14:46:49;44.67;;;21.20;;
71166;SDS011;58864;45.928;20.078;2022-12-29T14:49:29;38.13;;;18.95;;
71166;SDS011;58864;45.928;20.078;2022-12-29T14:52:04;41.83;;;20.27;;
71166;SDS011;58864;45.928;20.078;2022-12-29T14:54:34;42.15;;;20.67;;
71166;SDS011;58864;45.928;20.078;2022-12-29T14:57:06;39.95;;;21.50;;
71166;SDS011;58864;45.928;20.078;2022-12-29T14:59:34;44.80;;;21.10;;
71166;SDS011;58864;45.928;20.078;2022-12-29T15:01:59;48.67;;;22.35;;
71166;SDS011;58864;45.928;20.078;2022-12-29T15:04:27;45.83;;;23.48;;
71166;SDS011;58864;45.928;20.078;2022-12-29T15:06:55;44.95;;;23.50;;
71166;SDS011;58864;45.928;20.078;2022-12-29T15:09:34;50.23;;;24.60;;
71166;SDS011;58864;45.928;20.078;2022-12-29T15:12:11;50.63;;;23.20;;
71166;SDS011;58864;45.928;20.078;2022-12-29T15:14:54;53.58;;;25.50;;
71166;SDS011;58864;45.928;20.078;2022-12-29T15:17:27;44.10;;;22.83;;
71166;SDS011;58864;45.928;20.078;2022-12-29T15:19:54;48.10;;;23.35;;
71166;SDS011;58864;45.928;20.078;2022-12-29T15:22:19;50.77;;;25.27;;
71166;SDS011;58864;45.928;20.078;2022-12-29T15:24:43;45.88;;;23.17;;
71166;SDS011;58864;45.928;20.078;2022-12-29T15:27:15;51.67;;;23.07;;
71166;SDS011;58864;45.928;20.078;2022-12-29T15:29:43;61.33;;;25.73;;
71166;SDS011;58864;45.928;20.078;2022-12-29T15:32:16;62.33;;;27.92;;
71166;SDS011;58864;45.928;20.078;2022-12-29T15:34:46;76.43;;;30.30;;
71166;SDS011;58864;45.928;20.078;2022-12-29T15:37:32;74.10;;;29.70;;
71166;SDS011;58864;45.928;20.078;2022-12-29T15:39:59;69.43;;;29.67;;
71166;SDS011;58864;45.928;20.078;2022-12-29T15:45:12;56.63;;;25.20;;
71166;SDS011;58864;45.928;20.078;2022-12-29T15:47:37;57.47;;;27.25;;
71166;SDS011;58864;45.928;20.078;2022-12-29T15:50:07;63.72;;;27.58;;
71166;SDS011;58864;45.928;20.078;2022-12-29T15:52:38;60.08;;;27.52;;
71166;SDS011;58864;45.928;20.078;2022-12-29T15:55:03;65.77;;;29.47;;
71166;SDS011;58864;45.928;20.078;2022-12-29T15:57:30;61.33;;;28.25;;
71166;SDS011;58864;45.928;20.078;2022-12-29T15:59:56;54.85;;;26.80;;
71166;SDS011;58864;45.928;20.078;2022-12-29T16:02:22;56.60;;;27.48;;
71166;SDS011;58864;45.928;20.078;2022-12-29T16:04:48;59.93;;;27.80;;
71166;SDS011;58864;45.928;20.078;2022-12-29T16:07:27;66.07;;;30.55;;
71166;SDS011;58864;45.928;20.078;2022-12-29T16:09:54;79.93;;;31.92;;
71166;SDS011;58864;45.928;20.078;2022-12-29T16:12:24;69.90;;;32.05;;
71166;SDS011;58864;45.928;20.078;2022-12-29T16:14:52;62.75;;;28.88;;
71166;SDS011;58864;45.928;20.078;2022-12-29T16:17:20;59.80;;;26.63;;
71166;SDS011;58864;45.928;20.078;2022-12-29T16:19:50;62.17;;;28.55;;
71166;SDS011;58864;45.928;20.078;2022-12-29T16:22:27;56.08;;;28.15;;
71166;SDS011;58864;45.928;20.078;2022-12-29T16:24:58;66.45;;;28.35;;
71166;SDS011;58864;45.928;20.078;2022-12-29T16:27:37;59.85;;;27.48;;
71166;SDS011;58864;45.928;20.078;2022-12-29T16:30:04;56.43;;;25.97;;
71166;SDS011;58864;45.928;20.078;2022-12-29T16:32:30;53.25;;;25.65;;
71166;SDS011;58864;45.928;20.078;2022-12-29T16:38:19;54.75;;;27.30;;
71166;SDS011;58864;45.928;20.078;2022-12-29T16:40:55;59.40;;;27.65;;
71166;SDS011;58864;45.928;20.078;2022-12-29T16:43:21;60.73;;;28.23;;
71166;SDS011;58864;45.928;20.078;2022-12-29T16:51:03;61.53;;;26.92;;
71166;SDS011;58864;45.928;20.078;2022-12-29T16:53:39;64.47;;;30.63;;
71166;SDS011;58864;45.928;20.078;2022-12-29T16:56:13;77.60;;;37.97;;
71166;SDS011;58864;45.928;20.078;2022-12-29T16:58:39;79.90;;;37.03;;
71166;SDS011;58864;45.928;20.078;2022-12-29T17:01:04;75.90;;;34.77;;
71166;SDS011;58864;45.928;20.078;2022-12-29T17:03:35;68.78;;;33.15;;
71166;SDS011;58864;45.928;20.078;2022-12-29T17:06:02;62.55;;;30.33;;
71166;SDS011;58864;45.928;20.078;2022-12-29T17:08:27;57.50;;;27.70;;
71166;SDS011;58864;45.928;20.078;2022-12-29T17:10:52;63.77;;;30.53;;
71166;SDS011;58864;45.928;20.078;2022-12-29T17:13:37;68.25;;;32.08;;
71166;SDS011;58864;45.928;20.078;2022-12-29T17:16:02;78.72;;;35.58;;
71166;SDS011;58864;45.928;20.078;2022-12-29T17:18:27;84.10;;;37.22;;
71166;SDS011;58864;45.928;20.078;2022-12-29T17:20:52;91.40;;;36.50;;
71166;SDS011;58864;45.928;20.078;2022-12-29T17:23:16;84.50;;;38.00;;
71166;SDS011;58864;45.928;20.078;2022-12-29T17:25:41;99.22;;;41.28;;
71166;SDS011;58864;45.928;20.078;2022-12-29T17:28:12;90.37;;;38.70;;
71166;SDS011;58864;45.928;20.078;2022-12-29T17:30:52;88.38;;;38.70;;
71166;SDS011;58864;45.928;20.078;2022-12-29T17:33:18;97.18;;;41.28;;
71166;SDS011;58864;45.928;20.078;2022-12-29T17:35:43;87.75;;;38.47;;
71166;SDS011;58864;45.928;20.078;2022-12-29T17:38:18;87.67;;;37.10;;
71166;SDS011;58864;45.928;20.078;2022-12-29T17:40:44;86.10;;;36.10;;
71166;SDS011;58864;45.928;20.078;2022-12-29T17:43:08;86.70;;;37.57;;
71166;SDS011;58864;45.928;20.078;2022-12-29T17:45:39;82.38;;;36.40;;
71166;SDS011;58864;45.928;20.078;2022-12-29T17:48:08;73.20;;;33.13;;
71166;SDS011;58864;45.928;20.078;2022-12-29T17:50:35;72.03;;;33.42;;
71166;SDS011;58864;45.928;20.078;2022-12-29T17:53:03;75.27;;;34.60;;